Time;durP1;ratioP1;P1;durP2;ratioP2;P2;SDS_P1;SDS_P2;PMS_P1;PMS_P2;Temp;Humidity;BMP_temperature;BMP_pressure;BME280_temperature;BME280_humidity;BME280_pressure;Samples;Min_cycle;Max_cycle;Signal;HPM_P1;HPM_P2
2023/07/01 00:00:07;;;;;;;3.13;2.20;;;;;;;17.92;59.63;100759.03;5083969;28;20081;-69
2023/07/01 00:02:33;;;;;;;4.15;2.30;;;;;;;17.89;58.35;100749.53;5084425;28;20074;-69
2023/07/01 00:04:59;;;;;;;5.85;2.65;;;;;;;17.86;57.77;100748.88;5082866;28;20445;-69
2023/07/01 00:07:24;;;;;;;5.43;2.25;;;;;;;17.82;58.61;100745.56;5077623;28;20021;-69
2023/07/01 00:09:52;;;;;;;9.07;2.33;;;;;;;17.85;58.87;100748.00;5078585;28;20426;-69
2023/07/01 00:12:18;;;;;;;4.68;2.28;;;;;;;17.82;58.89;100731.50;5083812;28;20027;-69
2023/07/01 00:14:43;;;;;;;5.93;2.28;;;;;;;17.82;58.74;100732.38;5083098;28;20024;-69
2023/07/01 00:17:11;;;;;;;8.98;2.53;;;;;;;17.67;58.94;100710.28;5083416;28;20034;-69
2023/07/01 00:19:37;;;;;;;6.30;2.35;;;;;;;17.70;58.78;100722.47;5083756;28;20446;-69
2023/07/01 00:22:02;;;;;;;5.03;2.25;;;;;;;17.75;59.18;100723.03;5081281;28;20123;-69
2023/07/01 00:24:28;;;;;;;9.88;2.35;;;;;;;17.72;59.70;100724.09;5083692;28;20395;-69
2023/07/01 00:26:53;;;;;;;3.50;1.95;;;;;;;17.69;60.37;100705.78;5083768;28;20050;-69
2023/07/01 00:29:18;;;;;;;6.53;2.60;;;;;;;17.70;61.05;100712.75;5081054;28;20037;-69
2023/07/01 00:31:44;;;;;;;9.63;3.08;;;;;;;17.71;60.28;100708.31;5083984;28;20081;-69
2023/07/01 00:34:09;;;;;;;5.80;2.20;;;;;;;17.73;60.57;100712.59;5082845;28;20033;-69
2023/07/01 00:36:34;;;;;;;6.68;2.50;;;;;;;17.70;61.03;100698.72;5081699;28;20071;-69
2023/07/01 00:39:00;;;;;;;7.07;2.70;;;;;;;17.66;58.55;100695.41;5085091;28;20108;-69
2023/07/01 00:41:25;;;;;;;7.22;2.22;;;;;;;17.69;59.91;100694.38;5072932;28;20119;-69
2023/07/01 00:43:50;;;;;;;9.02;2.63;;;;;;;17.66;59.88;100695.41;5086446;28;20551;-69
2023/07/01 00:46:16;;;;;;;7.65;2.50;;;;;;;17.67;61.71;100691.84;5080732;28;20031;-69
2023/07/01 00:48:42;;;;;;;9.13;2.63;;;;;;;17.63;60.99;100689.47;5086553;28;20027;-69
2023/07/01 00:51:07;;;;;;;5.40;2.72;;;;;;;17.63;62.29;100685.03;5080032;28;20036;-69
2023/07/01 00:53:33;;;;;;;7.25;2.63;;;;;;;17.60;62.18;100685.19;5086190;28;20385;-69
2023/07/01 00:55:58;;;;;;;6.72;2.60;;;;;;;17.58;62.17;100681.78;5081078;28;20386;-69
2023/07/01 00:58:23;;;;;;;3.80;2.35;;;;;;;17.40;64.71;100673.13;5083312;28;20127;-69
2023/07/01 01:00:49;;;;;;;5.07;2.65;;;;;;;17.29;63.87;100678.09;5083094;28;20024;-69
2023/07/01 01:03:32;;;;;;;6.97;2.50;;;;;;;17.34;65.15;100676.09;5081811;28;20360;-69
2023/07/01 01:06:33;;;;;;;;;;;;;;;17.44;63.72;100674.66;5083293;28;20036;-69
2023/07/01 01:09:12;;;;;;;6.22;2.42;;;;;;;17.42;65.49;100662.47;5071103;28;19920;-69
2023/07/01 01:11:42;;;;;;;6.50;2.40;;;;;;;17.44;65.48;100669.38;5079157;28;20090;-69
2023/07/01 01:14:11;;;;;;;5.28;2.55;;;;;;;17.48;66.09;100664.78;5088458;28;20028;-69
2023/07/01 01:16:39;;;;;;;4.80;2.50;;;;;;;17.48;64.38;100660.38;5080369;28;20025;-69
2023/07/01 01:19:19;;;;;;;6.28;2.75;;;;;;;17.55;67.41;100656.44;5087826;28;20028;-69
2023/07/01 01:21:52;;;;;;;6.63;2.45;;;;;;;17.58;66.10;100658.06;5080180;28;20055;-69
2023/07/01 01:24:20;;;;;;;7.77;2.93;;;;;;;17.50;65.75;100636.56;5087737;28;20024;-69
2023/07/01 01:26:49;;;;;;;9.73;2.72;;;;;;;17.51;67.81;100641.75;5080036;28;20051;-69
2023/07/01 01:29:14;;;;;;;4.93;2.55;;;;;;;17.58;67.84;100641.41;5091553;28;20024;-69
2023/07/01 01:31:39;;;;;;;9.23;3.03;;;;;;;17.57;69.10;100634.44;5077415;28;20024;-69
2023/07/01 01:34:05;;;;;;;9.38;2.50;;;;;;;17.59;69.85;100640.47;5084120;28;20093;-69
2023/07/01 01:36:50;;;;;;;3.90;2.60;;;;;;;17.62;71.92;100646.41;5089475;28;20024;-69
2023/07/01 01:39:23;;;;;;;12.38;2.83;;;;;;;17.36;74.95;100639.94;5079201;28;20043;-69
2023/07/01 01:41:56;;;;;;;5.68;2.58;;;;;;;17.26;79.62;100639.59;5089671;28;20123;-69
2023/07/01 01:44:27;;;;;;;5.10;3.08;;;;;;;17.22;79.09;100637.22;5083979;28;20100;-69
2023/07/01 01:46:54;;;;;;;4.97;3.20;;;;;;;17.16;79.54;100632.28;5089393;28;20021;-69
2023/07/01 01:49:20;;;;;;;5.47;2.92;;;;;;;17.09;80.82;100622.06;5078490;28;20039;-69
2023/07/01 01:51:46;;;;;;;7.85;2.80;;;;;;;17.17;81.24;100631.38;5089836;28;20036;-69
2023/07/01 01:54:13;;;;;;;7.40;2.80;;;;;;;17.20;82.87;100624.16;5083124;28;20039;-69
2023/07/01 01:56:39;;;;;;;6.95;3.00;;;;;;;17.19;81.68;100632.13;5087512;28;20051;-69
2023/07/01 01:59:05;;;;;;;6.75;2.65;;;;;;;17.20;80.07;100618.88;5079263;28;20028;-69
2023/07/01 02:01:31;;;;;;;5.88;2.70;;;;;;;17.20;80.15;100615.38;5080527;28;20040;-68
2023/07/01 02:03:56;;;;;;;6.18;2.83;;;;;;;17.23;80.22;100616.09;5079145;28;20028;-69
2023/07/01 02:06:22;;;;;;;5.45;2.63;;;;;;;17.27;81.40;100622.03;5085568;28;20035;-69
2023/07/01 02:08:47;;;;;;;4.05;2.60;;;;;;;17.25;81.21;100616.81;5083103;28;20067;-69
2023/07/01 02:11:12;;;;;;;9.68;3.10;;;;;;;17.27;80.47;100611.50;5085737;28;20104;-69
2023/07/01 02:13:38;;;;;;;9.25;2.75;;;;;;;17.22;80.55;100601.19;5085771;28;20137;-69
2023/07/01 02:16:03;;;;;;;8.25;2.90;;;;;;;17.26;80.13;100607.97;5079724;28;20023;-69
2023/07/01 02:18:28;;;;;;;5.03;2.72;;;;;;;17.27;80.85;100614.13;5086539;28;20032;-69
2023/07/01 02:20:54;;;;;;;5.32;3.10;;;;;;;17.24;80.75;100607.25;5085898;28;20476;-69
2023/07/01 02:23:19;;;;;;;7.20;3.00;;;;;;;17.23;80.77;100604.66;5085913;28;20028;-69
2023/07/01 02:25:45;;;;;;;6.50;2.80;;;;;;;17.22;80.54;100606.47;5086357;28;20012;-69
2023/07/01 02:28:10;;;;;;;6.07;2.90;;;;;;;17.21;81.91;100590.75;5085383;28;20384;-69
2023/07/01 02:30:36;;;;;;;6.32;2.70;;;;;;;17.06;83.58;100577.47;5085256;28;20099;-69
2023/07/01 02:33:02;;;;;;;8.13;2.78;;;;;;;17.13;87.77;100590.31;5078591;28;20529;-69
2023/07/01 02:35:30;;;;;;;6.32;2.38;;;;;;;17.08;89.68;100587.94;5080996;28;20055;-69
2023/07/01 02:37:55;;;;;;;4.93;2.38;;;;;;;16.97;91.88;100575.34;5086315;28;20032;-69
2023/07/01 02:40:21;;;;;;;9.45;2.90;;;;;;;16.97;92.56;100580.63;5083786;28;20599;-69
2023/07/01 02:42:46;;;;;;;9.45;2.88;;;;;;;16.93;94.00;100573.81;5084166;28;20461;-69
2023/07/01 02:45:11;;;;;;;4.90;2.92;;;;;;;16.87;95.58;100574.13;5086860;28;20051;-69
2023/07/01 02:47:37;;;;;;;7.63;2.75;;;;;;;16.76;97.55;100560.72;5083235;28;20027;-69
2023/07/01 02:50:04;;;;;;;6.68;2.60;;;;;;;16.70;99.91;100571.53;5088024;28;20056;-69
2023/07/01 02:52:29;;;;;;;4.35;3.00;;;;;;;16.61;100.00;100573.72;5082381;28;20039;-69
2023/07/01 02:54:54;;;;;;;5.90;2.80;;;;;;;16.59;100.00;100567.69;5090219;28;20024;-69
2023/07/01 02:57:20;;;;;;;8.18;2.90;;;;;;;16.55;100.00;100573.19;5081496;28;20028;-69
2023/07/01 02:59:46;;;;;;;4.97;2.63;;;;;;;16.47;100.00;100565.69;5089901;28;20032;-69
2023/07/01 03:02:12;;;;;;;6.60;2.55;;;;;;;16.45;100.00;100562.31;5082227;28;20410;-69
2023/07/01 03:04:37;;;;;;;5.15;2.40;;;;;;;16.52;100.00;100561.06;5087791;28;20073;-69
2023/07/01 03:07:04;;;;;;;3.35;2.17;;;;;;;16.46;100.00;100558.75;5080827;28;20032;-69
2023/07/01 03:09:29;;;;;;;5.05;2.75;;;;;;;16.47;100.00;100560.44;5081370;28;20054;-69
2023/07/01 03:11:55;;;;;;;4.35;2.28;;;;;;;16.42;100.00;100559.84;5084558;28;20467;-69
2023/07/01 03:14:21;;;;;;;5.78;2.60;;;;;;;16.35;100.00;100554.03;5082287;28;20024;-69
2023/07/01 03:16:47;;;;;;;4.75;2.38;;;;;;;16.29;100.00;100566.66;5086531;28;20020;-69
2023/07/01 03:19:13;;;;;;;4.78;2.97;;;;;;;16.14;100.00;100553.34;5084037;28;20031;-69
2023/07/01 03:21:38;;;;;;;5.65;2.72;;;;;;;16.07;100.00;100551.13;5085058;28;20093;-69
2023/07/01 03:24:04;;;;;;;4.13;2.95;;;;;;;16.03;100.00;100547.81;5084418;28;20035;-69
2023/07/01 03:26:29;;;;;;;5.13;2.53;;;;;;;16.01;100.00;100552.28;5083311;28;20093;-69
2023/07/01 03:28:55;;;;;;;4.97;3.22;;;;;;;16.02;100.00;100547.88;5084989;28;20031;-69
2023/07/01 03:31:21;;;;;;;5.15;3.13;;;;;;;16.00;100.00;100534.81;5082917;28;20084;-70
2023/07/01 03:33:47;;;;;;;5.20;3.30;;;;;;;16.02;100.00;100538.22;5084786;28;20028;-69
2023/07/01 03:36:12;;;;;;;3.60;2.90;;;;;;;16.01;100.00;100536.50;5085330;28;20148;-69
2023/07/01 03:38:37;;;;;;;9.27;3.33;;;;;;;16.02;100.00;100546.13;5083250;28;20025;-69
2023/07/01 03:41:03;;;;;;;3.63;2.75;;;;;;;15.97;100.00;100528.88;5085142;28;20024;-69
2023/07/01 03:43:29;;;;;;;6.50;3.08;;;;;;;15.94;100.00;100532.50;5083970;28;20029;-69
2023/07/01 03:45:55;;;;;;;3.95;2.83;;;;;;;15.69;100.00;100530.22;5084300;28;20024;-70
2023/07/01 03:48:20;;;;;;;8.85;3.38;;;;;;;15.42;100.00;100521.91;5085835;28;20487;-69
2023/07/01 03:50:45;;;;;;;4.72;3.15;;;;;;;15.32;100.00;100525.91;5082476;28;20066;-69
2023/07/01 03:53:11;;;;;;;4.40;3.30;;;;;;;15.21;100.00;100529.91;5087427;28;20032;-69
2023/07/01 03:55:36;;;;;;;4.65;3.38;;;;;;;15.14;100.00;100525.88;5080928;28;20021;-69
2023/07/01 03:58:01;;;;;;;4.22;3.70;;;;;;;15.11;100.00;100526.00;5089604;28;20029;-69
2023/07/01 04:00:27;;;;;;;5.22;4.13;;;;;;;15.11;100.00;100526.00;5074882;28;20028;-70
2023/07/01 04:02:53;;;;;;;5.72;3.95;;;;;;;15.09;100.00;100525.22;5082178;28;20023;-69
2023/07/01 04:05:19;;;;;;;5.43;3.63;;;;;;;15.10;100.00;100529.53;5085905;28;20025;-70
2023/07/01 04:07:48;;;;;;;5.60;3.95;;;;;;;15.10;100.00;100515.56;5073627;28;20074;-70
2023/07/01 04:10:14;;;;;;;5.97;4.10;;;;;;;15.10;100.00;100510.31;5083534;28;20044;-71
2023/07/01 04:12:40;;;;;;;4.57;3.97;;;;;;;15.07;100.00;100511.31;5083707;28;20039;-70
2023/07/01 04:15:09;;;;;;;7.13;4.07;;;;;;;15.03;100.00;100511.53;5081096;28;20028;-71
2023/07/01 04:17:35;;;;;;;6.28;4.13;;;;;;;15.01;100.00;100495.88;5084901;28;20028;-71
2023/07/01 04:20:03;;;;;;;4.63;4.15;;;;;;;15.02;100.00;100483.59;5081272;28;20025;-70
2023/07/01 04:22:28;;;;;;;4.90;4.13;;;;;;;15.04;100.00;100498.34;5074390;28;20123;-71
2023/07/01 04:24:53;;;;;;;5.45;4.03;;;;;;;15.02;100.00;100492.31;5080947;28;20123;-71
2023/07/01 04:27:19;;;;;;;6.78;4.07;;;;;;;14.99;100.00;100492.44;5086276;28;20059;-71
2023/07/01 04:29:44;;;;;;;5.50;3.90;;;;;;;14.92;100.00;100488.41;5080437;28;20087;-70
2023/07/01 04:32:09;;;;;;;4.50;3.72;;;;;;;14.91;100.00;100490.19;5086613;28;20027;-71
2023/07/01 04:34:35;;;;;;;4.63;4.07;;;;;;;14.87;100.00;100480.75;5080477;28;20024;-70
2023/07/01 04:37:02;;;;;;;4.40;3.50;;;;;;;14.89;100.00;100485.94;5085163;28;20556;-70
2023/07/01 04:39:27;;;;;;;5.68;3.90;;;;;;;14.88;100.00;100482.47;5082950;28;20121;-71
2023/07/01 04:41:53;;;;;;;4.50;3.90;;;;;;;14.91;100.00;100481.44;5082331;28;20028;-70
2023/07/01 04:44:18;;;;;;;5.15;3.83;;;;;;;14.92;100.00;100480.53;5084319;28;20027;-70
2023/07/01 04:46:43;;;;;;;5.43;3.78;;;;;;;14.93;100.00;100474.38;5082075;28;20035;-70
2023/07/01 04:49:09;;;;;;;4.72;3.45;;;;;;;14.91;100.00;100463.06;5083344;28;20032;-70
2023/07/01 04:51:35;;;;;;;6.40;3.83;;;;;;;14.92;100.00;100462.19;5082057;28;20491;-71
2023/07/01 04:54:01;;;;;;;4.25;3.60;;;;;;;14.89;100.00;100470.19;5071809;28;20020;-70
2023/07/01 04:56:26;;;;;;;4.78;3.75;;;;;;;14.93;100.00;100469.13;5076258;28;20016;-70
2023/07/01 04:58:51;;;;;;;4.05;3.70;;;;;;;14.97;100.00;100468.88;5081967;28;20039;-70
2023/07/01 05:01:17;;;;;;;4.45;4.07;;;;;;;15.01;100.00;100464.38;5083902;28;20422;-70
2023/07/01 05:03:43;;;;;;;7.07;3.80;;;;;;;15.04;100.00;100458.09;5080435;28;20063;-71
2023/07/01 05:06:08;;;;;;;6.28;3.80;;;;;;;15.04;100.00;100453.72;5084770;28;20063;-70
2023/07/01 05:08:33;;;;;;;9.68;3.75;;;;;;;15.05;100.00;100457.19;5083110;28;20040;-71
2023/07/01 05:10:58;;;;;;;4.43;3.80;;;;;;;15.05;100.00;100454.56;5083948;28;20399;-70
2023/07/01 05:13:24;;;;;;;4.90;4.10;;;;;;;15.02;100.00;100454.72;5087599;28;20077;-71
2023/07/01 05:15:49;;;;;;;5.63;4.05;;;;;;;15.01;100.00;100451.25;5086391;28;20027;-71
2023/07/01 05:18:14;;;;;;;5.15;4.07;;;;;;;15.05;100.00;100457.19;5085960;28;20028;-70
2023/07/01 05:20:40;;;;;;;6.13;4.15;;;;;;;15.05;100.00;100449.31;5087691;28;20106;-71
2023/07/01 05:23:05;;;;;;;4.97;4.03;;;;;;;15.06;100.00;100451.00;5085044;28;20056;-70
2023/07/01 05:25:30;;;;;;;4.78;4.38;;;;;;;15.08;100.00;100457.03;5086841;28;20107;-70
2023/07/01 05:27:55;;;;;;;7.03;4.35;;;;;;;15.04;100.00;100453.72;5087274;28;20016;-70
2023/07/01 05:30:21;;;;;;;4.93;3.67;;;;;;;15.05;100.00;100451.94;5085457;28;20049;-70
2023/07/01 05:32:46;;;;;;;6.60;3.92;;;;;;;15.06;100.00;100443.13;5088269;28;20058;-70
2023/07/01 05:35:11;;;;;;;4.78;4.00;;;;;;;15.09;100.00;100449.09;5083931;28;20037;-70
2023/07/01 05:37:37;;;;;;;5.18;4.05;;;;;;;15.08;100.00;100449.16;5089658;28;20040;-70
2023/07/01 05:40:02;;;;;;;6.35;4.20;;;;;;;15.06;100.00;100441.34;5083897;28;20024;-70
2023/07/01 05:42:28;;;;;;;5.00;4.38;;;;;;;15.04;100.00;100442.34;5090715;28;20032;-71
2023/07/01 05:44:53;;;;;;;5.07;4.00;;;;;;;14.99;100.00;100430.28;5084662;28;20028;-70
2023/07/01 05:47:18;;;;;;;4.35;3.95;;;;;;;14.95;100.00;100420.88;5089682;28;20035;-70
2023/07/01 05:49:44;;;;;;;6.00;4.32;;;;;;;15.07;100.00;100442.19;5085011;28;20020;-70
2023/07/01 05:52:09;;;;;;;5.28;4.13;;;;;;;15.06;100.00;100438.72;5086638;28;20024;-70
2023/07/01 05:54:34;;;;;;;6.75;3.90;;;;;;;15.14;100.00;100440.97;5086580;28;20036;-70
2023/07/01 05:57:00;;;;;;;4.80;4.38;;;;;;;15.09;100.00;100435.94;5085263;28;20039;-70
2023/07/01 05:59:25;;;;;;;4.93;4.25;;;;;;;15.06;100.00;100430.84;5085920;28;20024;-71
2023/07/01 06:01:50;;;;;;;7.40;4.32;;;;;;;15.16;100.00;100434.72;5085598;28;20063;-70
2023/07/01 06:04:16;;;;;;;6.82;4.55;;;;;;;15.19;100.00;100441.59;5087147;28;20047;-70
2023/07/01 06:06:41;;;;;;;4.93;3.83;;;;;;;15.18;100.00;100432.88;5083222;28;20055;-70
2023/07/01 06:09:08;;;;;;;4.40;4.00;;;;;;;15.20;100.00;100420.53;5080470;28;20032;-70
2023/07/01 06:11:34;;;;;;;6.70;4.18;;;;;;;15.35;100.00;100428.56;5086407;28;20028;-70
2023/07/01 06:13:59;;;;;;;4.93;4.10;;;;;;;15.46;100.00;100424.47;5085282;28;20085;-70
2023/07/01 06:16:25;;;;;;;5.68;3.42;;;;;;;15.51;100.00;100426.88;5084126;28;20469;-70
2023/07/01 06:18:50;;;;;;;4.03;3.30;;;;;;;15.63;100.00;100422.75;5081584;28;20028;-70
2023/07/01 06:21:15;;;;;;;3.80;3.50;;;;;;;15.66;100.00;100418.25;5084047;28;20123;-70
2023/07/01 06:23:41;;;;;;;5.30;3.50;;;;;;;15.68;100.00;100418.16;5085971;28;20118;-70
2023/07/01 06:26:07;;;;;;;5.38;4.22;;;;;;;15.70;100.00;100426.00;5084767;28;20028;-70
2023/07/01 06:28:32;;;;;;;5.85;3.33;;;;;;;15.65;100.00;100416.50;5082075;28;20033;-71
2023/07/01 06:30:57;;;;;;;6.18;3.72;;;;;;;15.56;100.00;100401.22;5081584;28;20134;-70
2023/07/01 06:33:25;;;;;;;4.75;3.67;;;;;;;15.65;100.00;100416.50;5084124;28;20460;-71
2023/07/01 06:35:51;;;;;;;3.97;3.58;;;;;;;15.66;100.00;100423.50;5085651;28;20024;-71
2023/07/01 06:38:16;;;;;;;3.80;3.50;;;;;;;15.67;100.00;100416.47;5084894;28;20032;-70
2023/07/01 06:40:42;;;;;;;4.90;4.00;;;;;;;15.64;100.00;100417.44;5085305;28;20166;-70
2023/07/01 06:43:07;;;;;;;5.20;3.90;;;;;;;15.65;100.00;100411.25;5086295;28;20025;-70
2023/07/01 06:45:37;;;;;;;5.15;3.90;;;;;;;15.63;100.00;100407.88;5083294;28;20476;-70
2023/07/01 06:48:03;;;;;;;4.25;3.90;;;;;;;15.58;100.00;100409.88;5082754;28;20067;-70
2023/07/01 06:50:28;;;;;;;8.90;3.80;;;;;;;15.59;100.00;100419.44;5082659;28;20133;-70
2023/07/01 06:52:54;;;;;;;4.47;3.83;;;;;;;15.61;100.00;100422.84;5089825;28;20086;-70
2023/07/01 06:55:19;;;;;;;4.90;3.67;;;;;;;15.45;100.00;100400.91;5081837;28;20475;-70
2023/07/01 06:57:44;;;;;;;4.55;3.58;;;;;;;15.58;100.00;100420.38;5089801;28;20021;-70
2023/07/01 07:00:12;;;;;;;5.03;3.63;;;;;;;15.55;100.00;100412.66;5082912;28;20027;-70
2023/07/01 07:02:38;;;;;;;5.10;3.47;;;;;;;15.60;100.00;100415.91;5088347;28;20490;-70
2023/07/01 07:05:05;;;;;;;4.35;3.08;;;;;;;15.59;100.00;100419.44;5083096;28;20024;-70
2023/07/01 07:07:31;;;;;;;3.92;3.40;;;;;;;15.61;100.00;100416.75;5078532;28;20044;-71
2023/07/01 07:09:57;;;;;;;3.33;3.03;;;;;;;15.63;100.00;100407.00;5080306;28;20033;-70
2023/07/01 07:12:22;;;;;;;5.03;3.35;;;;;;;15.62;100.00;100413.19;5087153;28;20037;-70
2023/07/01 07:14:47;;;;;;;5.65;3.45;;;;;;;15.62;100.00;100406.16;5074530;28;20048;-70
2023/07/01 07:17:13;;;;;;;3.85;3.47;;;;;;;15.60;100.00;100404.56;5087402;28;20024;-70
2023/07/01 07:19:38;;;;;;;3.80;3.40;;;;;;;15.68;100.00;100400.63;5076946;28;20036;-70
2023/07/01 07:22:04;;;;;;;5.43;3.50;;;;;;;15.68;100.00;100413.75;5088174;28;20068;-70
2023/07/01 07:24:30;;;;;;;4.53;3.55;;;;;;;15.69;100.00;100404.09;5080716;28;20024;-70
2023/07/01 07:27:00;;;;;;;3.88;3.35;;;;;;;15.76;100.00;100404.63;5086694;28;20062;-70
2023/07/01 07:29:26;;;;;;;4.07;3.35;;;;;;;15.75;100.00;100397.69;5082717;28;20454;-70
2023/07/01 07:31:57;;;;;;;3.85;3.28;;;;;;;15.72;100.00;100393.41;5085153;28;20063;-70
2023/07/01 07:34:23;;;;;;;4.75;3.45;;;;;;;15.72;100.00;100390.78;5083896;28;20059;-71
2023/07/01 07:36:49;;;;;;;4.47;3.70;;;;;;;15.83;100.00;100398.16;5077427;28;20096;-70
2023/07/01 07:39:16;;;;;;;3.83;3.47;;;;;;;15.81;100.00;100397.38;5084297;28;20016;-70
2023/07/01 07:41:42;;;;;;;3.55;3.22;;;;;;;15.91;100.00;100398.56;5082683;28;20056;-70
2023/07/01 07:44:07;;;;;;;3.47;3.17;;;;;;;16.05;100.00;100398.69;5084067;28;20111;-71
2023/07/01 07:46:33;;;;;;;3.53;3.22;;;;;;;16.16;100.00;100395.50;5082829;28;20039;-70
2023/07/01 07:48:59;;;;;;;3.90;3.10;;;;;;;16.30;100.00;100398.22;5084991;28;20036;-70
2023/07/01 07:51:24;;;;;;;4.45;3.25;;;;;;;16.39;100.00;100378.47;5083409;28;20093;-70
2023/07/01 07:53:49;;;;;;;3.15;2.95;;;;;;;16.49;100.00;100395.44;5083893;28;20035;-70
2023/07/01 07:56:15;;;;;;;3.33;2.78;;;;;;;16.54;100.00;100385.50;5085008;28;20104;-70
2023/07/01 07:58:40;;;;;;;3.45;2.63;;;;;;;16.62;100.00;100385.94;5082474;28;20017;-71
2023/07/01 08:01:05;;;;;;;3.83;3.35;;;;;;;16.56;100.00;100390.69;5084743;28;20055;-70
2023/07/01 08:03:31;;;;;;;3.20;2.90;;;;;;;16.43;100.00;100366.00;5085352;28;20368;-70
2023/07/01 08:05:56;;;;;;;3.20;2.92;;;;;;;16.59;100.00;100385.25;5079440;28;20032;-71
2023/07/01 08:08:21;;;;;;;4.25;2.97;;;;;;;16.62;100.00;100383.31;5081755;28;20120;-70
2023/07/01 08:10:46;;;;;;;4.20;2.80;;;;;;;16.64;100.00;100377.94;5082406;28;20059;-71
2023/07/01 08:13:13;;;;;;;4.93;3.00;;;;;;;16.69;100.00;100382.97;5083184;28;20029;-71
2023/07/01 08:15:39;;;;;;;3.15;2.67;;;;;;;16.65;100.00;100386.72;5084225;28;20031;-71
2023/07/01 08:18:04;;;;;;;2.83;2.63;;;;;;;16.61;100.00;100383.38;5081837;28;20028;-71
2023/07/01 08:20:29;;;;;;;2.70;2.50;;;;;;;16.62;100.00;100383.31;5083281;28;20028;-71
2023/07/01 08:22:54;;;;;;;4.00;2.78;;;;;;;16.70;100.00;100385.50;5083437;28;20487;-71
2023/07/01 08:25:20;;;;;;;3.22;2.65;;;;;;;16.78;100.00;100382.47;5083328;28;20037;-71
2023/07/01 08:27:45;;;;;;;2.55;2.35;;;;;;;16.93;100.00;100388.66;5084272;28;20482;-72
2023/07/01 08:30:12;;;;;;;3.17;2.30;;;;;;;16.96;100.00;100396.38;5080745;28;20373;-72
2023/07/01 08:32:37;;;;;;;3.25;2.40;;;;;;;16.85;100.00;100384.66;5087026;28;20025;-72
2023/07/01 08:35:03;;;;;;;5.25;2.20;;;;;;;16.81;100.00;100384.94;5079943;28;20438;-72
2023/07/01 08:37:28;;;;;;;3.10;2.58;;;;;;;16.79;100.00;100376.28;5087075;28;20468;-72
2023/07/01 08:39:53;;;;;;;2.33;2.10;;;;;;;16.83;100.00;100380.44;5080515;28;20522;-71
2023/07/01 08:42:37;;;;;;;1.92;1.80;;;;;;;16.77;100.00;100380.75;5087063;28;20050;-72
2023/07/01 08:45:03;;;;;;;3.70;2.17;;;;;;;16.74;100.00;100387.03;5078517;28;20029;-72
2023/07/01 08:47:32;;;;;;;1.90;1.70;;;;;;;16.76;100.00;100373.81;5086871;28;20035;-71
2023/07/01 08:50:04;;;;;;;6.47;2.00;;;;;;;16.79;100.00;100378.91;5073881;28;20073;-71
2023/07/01 08:52:57;;;;;;;1.60;1.50;;;;;;;16.79;100.00;100376.28;5080268;28;20032;-71
2023/07/01 08:55:23;;;;;;;2.50;1.80;;;;;;;16.75;100.00;100380.03;5078081;28;20037;-71
2023/07/01 08:57:49;;;;;;;1.80;1.70;;;;;;;16.80;100.00;100377.97;5088280;28;20031;-71
2023/07/01 09:00:14;;;;;;;2.70;2.03;;;;;;;16.97;100.00;100375.25;5080685;28;20033;-72
2023/07/01 09:02:43;;;;;;;4.18;1.83;;;;;;;17.02;100.00;100365.28;5087111;28;20422;-72
2023/07/01 09:05:08;;;;;;;1.83;1.60;;;;;;;17.18;100.00;100367.03;5080580;28;20073;-73
2023/07/01 09:07:36;;;;;;;2.88;1.60;;;;;;;17.24;100.00;100367.50;5077616;28;20373;-73
2023/07/01 09:10:03;;;;;;;2.28;1.73;;;;;;;17.18;100.00;100375.78;5079889;28;20032;-73
2023/07/01 09:12:29;;;;;;;2.30;1.75;;;;;;;17.12;100.00;100370.84;5084451;28;20025;-73
2023/07/01 09:15:02;;;;;;;1.75;1.65;;;;;;;17.14;100.00;100373.41;5080805;28;20021;-79
2023/07/01 09:17:30;;;;;;;1.45;1.35;;;;;;;17.21;100.00;100375.59;5084555;28;20424;-73
2023/07/01 09:20:05;;;;;;;2.38;1.40;;;;;;;17.24;100.00;100377.22;5080554;28;20024;-73
2023/07/01 09:22:31;;;;;;;1.52;1.42;;;;;;;17.35;100.00;100380.03;5073638;28;20426;-72
2023/07/01 09:24:57;;;;;;;1.40;1.30;;;;;;;17.44;100.00;100376.03;5080346;28;20103;-72
2023/07/01 09:27:23;;;;;;;1.60;1.50;;;;;;;17.48;100.00;100369.63;5086809;28;20514;-72
2023/07/01 09:29:48;;;;;;;1.70;1.60;;;;;;;17.53;100.00;100373.69;5079368;28;20041;-72
2023/07/01 09:32:32;;;;;;;2.63;1.60;;;;;;;17.59;100.00;100367.19;5087236;28;20028;-72
2023/07/01 09:34:58;;;;;;;2.55;1.50;;;;;;;17.62;100.00;100366.16;5080407;28;20431;-72
2023/07/01 09:37:27;;;;;;;1.80;1.55;;;;;;;17.64;100.00;100361.66;5086306;28;20032;-72
2023/07/01 09:39:52;;;;;;;2.33;1.80;;;;;;;17.72;100.00;100367.28;5080057;28;20082;-72
2023/07/01 09:42:18;;;;;;;1.88;1.70;;;;;;;17.70;100.00;100358.66;5087120;28;20025;-72
2023/07/01 09:45:06;;;;;;;1.90;1.80;;;;;;;17.72;100.00;100352.34;5072732;28;20468;-72
2023/07/01 09:47:32;;;;;;;1.65;1.55;;;;;;;17.66;100.00;100352.72;5087487;28;20024;-72
2023/07/01 09:49:58;;;;;;;2.25;1.70;;;;;;;17.74;100.00;100354.88;5082393;28;20055;-73
2023/07/01 09:52:33;;;;;;;1.85;1.73;;;;;;;17.76;100.00;100350.38;5089194;28;20067;-72
2023/07/01 09:55:03;;;;;;;3.45;1.90;;;;;;;17.70;100.00;100359.50;5079555;28;20086;-72
2023/07/01 09:57:29;;;;;;;4.03;2.00;;;;;;;17.73;100.00;100356.69;5090000;28;20147;-72
2023/07/01 09:59:55;;;;;;;2.10;2.00;;;;;;;17.74;100.00;100360.16;5083653;28;20031;-72
2023/07/01 10:02:22;;;;;;;2.42;2.03;;;;;;;17.70;100.00;100362.13;5082947;28;20032;-72
2023/07/01 10:04:47;;;;;;;2.75;1.88;;;;;;;17.74;100.00;100363.63;5082677;28;20105;-72
2023/07/01 10:07:12;;;;;;;2.33;1.92;;;;;;;17.65;100.00;100350.16;5080915;28;20067;-72
2023/07/01 10:09:48;;;;;;;2.10;1.90;;;;;;;17.65;100.00;100355.44;5081419;28;20067;-72
2023/07/01 10:12:18;;;;;;;2.20;2.00;;;;;;;17.59;100.00;100346.09;5091132;28;20040;-73
2023/07/01 10:14:48;;;;;;;3.15;2.10;;;;;;;17.62;100.00;100342.44;5077930;28;20024;-72
2023/07/01 10:17:15;;;;;;;3.92;2.10;;;;;;;17.65;100.00;100353.63;5089783;28;20535;-72
2023/07/01 10:19:46;;;;;;;2.60;2.40;;;;;;;17.71;100.00;100355.06;5082139;28;20033;-72
2023/07/01 10:22:22;;;;;;;2.35;2.17;;;;;;;17.82;100.00;100357.06;5083511;28;20052;-72
2023/07/01 10:25:03;;;;;;;3.08;2.20;;;;;;;17.82;100.00;100343.88;5082618;28;20040;-72
2023/07/01 10:27:40;;;;;;;2.65;2.45;;;;;;;17.81;100.00;100344.84;5088820;28;20025;-72
2023/07/01 10:30:10;;;;;;;3.22;2.67;;;;;;;17.78;100.00;100341.44;5074782;28;20052;-72
2023/07/01 10:32:36;;;;;;;3.00;2.80;;;;;;;17.82;100.00;100336.84;5082513;28;20033;-72
2023/07/01 10:35:04;;;;;;;4.05;3.10;;;;;;;17.95;100.00;100340.41;5082333;28;20078;-72
2023/07/01 10:37:31;;;;;;;3.20;2.90;;;;;;;18.17;100.00;100342.53;5090040;28;20032;-72
2023/07/01 10:39:58;;;;;;;3.78;3.25;;;;;;;18.34;100.00;100335.34;5085124;28;20074;-72
2023/07/01 10:42:31;;;;;;;3.53;3.22;;;;;;;18.56;100.00;100340.09;5089709;28;20544;-72
2023/07/01 10:45:11;;;;;;;3.63;3.15;;;;;;;18.82;100.00;100336.63;5082816;28;20426;-70
2023/07/01 10:47:48;;;;;;;3.85;3.45;;;;;;;19.00;100.00;100331.06;5089148;28;20032;-70
2023/07/01 10:50:14;;;;;;;3.45;3.15;;;;;;;19.11;100.00;100340.00;5082363;28;20040;-71
2023/07/01 10:52:55;;;;;;;3.35;3.05;;;;;;;19.30;100.00;100329.03;5090657;28;20024;-70
2023/07/01 10:55:33;;;;;;;3.80;3.45;;;;;;;19.47;100.00;100333.16;5080544;28;20103;-71
2023/07/01 10:58:23;;;;;;;3.75;3.40;;;;;;;19.63;100.00;100335.59;5075154;28;20132;-70
2023/07/01 11:00:52;;;;;;;4.05;3.75;;;;;;;19.66;100.00;100332.78;5081065;28;20028;-70
2023/07/01 11:03:36;;;;;;;3.92;3.50;;;;;;;19.86;100.00;100331.38;5086969;28;20484;-70
2023/07/01 11:06:03;;;;;;;3.90;3.50;;;;;;;20.06;100.00;100332.63;5081949;28;20031;-71
2023/07/01 11:08:30;;;;;;;3.85;3.28;;;;;;;20.22;100.00;100330.56;5081714;28;20020;-71
2023/07/01 11:10:55;;;;;;;3.25;2.90;;;;;;;20.50;100.00;100321.47;5083193;28;20063;-71
2023/07/01 11:13:22;;;;;;;3.50;3.20;;;;;;;20.73;100.00;100327.78;5085544;28;20456;-70
2023/07/01 11:16:03;;;;;;;3.75;3.45;;;;;;;21.10;100.00;100324.16;5084410;28;20098;-70
2023/07/01 11:18:52;;;;;;;3.17;2.95;;;;;;;21.36;100.00;100320.41;5078813;28;20407;-71